sensor_id;sensor_type;location;lat;lon;timestamp;temperature;humidity
75217;HTU21D;63800;51.972;5.682;2023-02-19T00:01:47;9.56;107.35
75217;HTU21D;63800;51.972;5.682;2023-02-19T00:04:18;9.48;107.50
75217;HTU21D;63800;51.972;5.682;2023-02-19T00:06:46;9.41;108.14
75217;HTU21D;63800;51.972;5.682;2023-02-19T00:09:16;9.48;107.69
75217;HTU21D;63800;51.972;5.682;2023-02-19T00:11:42;9.41;108.11
75217;HTU21D;63800;51.972;5.682;2023-02-19T00:14:10;9.54;107.61
75217;HTU21D;63800;51.972;5.682;2023-02-19T00:16:38;9.40;108.58
75217;HTU21D;63800;51.972;5.682;2023-02-19T00:19:07;9.44;108.17
75217;HTU21D;63800;51.972;5.682;2023-02-19T00:21:33;9.49;108.16
75217;HTU21D;63800;51.972;5.682;2023-02-19T00:24:01;9.41;108.14
75217;HTU21D;63800;51.972;5.682;2023-02-19T00:26:27;9.39;108.62
75217;HTU21D;63800;51.972;5.682;2023-02-19T00:28:53;9.48;108.29
75217;HTU21D;63800;51.972;5.682;2023-02-19T00:31:26;9.40;108.82
75217;HTU21D;63800;51.972;5.682;2023-02-19T00:33:53;9.41;108.85
75217;HTU21D;63800;51.972;5.682;2023-02-19T00:36:19;9.52;108.19
75217;HTU21D;63800;51.972;5.682;2023-02-19T00:38:45;9.49;108.24
75217;HTU21D;63800;51.972;5.682;2023-02-19T00:41:12;9.42;108.70
75217;HTU21D;63800;51.972;5.682;2023-02-19T00:44:04;9.33;109.55
75217;HTU21D;63800;51.972;5.682;2023-02-19T00:46:36;9.29;109.55
75217;HTU21D;63800;51.972;5.682;2023-02-19T00:49:03;9.30;109.38
75217;HTU21D;63800;51.972;5.682;2023-02-19T00:51:31;9.37;108.65
75217;HTU21D;63800;51.972;5.682;2023-02-19T00:53:56;9.25;109.39
75217;HTU21D;63800;51.972;5.682;2023-02-19T00:56:22;9.33;108.53
75217;HTU21D;63800;51.972;5.682;2023-02-19T00:58:48;9.36;108.54
75217;HTU21D;63800;51.972;5.682;2023-02-19T01:01:14;9.36;108.91
75217;HTU21D;63800;51.972;5.682;2023-02-19T01:03:40;9.40;108.71
75217;HTU21D;63800;51.972;5.682;2023-02-19T01:06:07;9.38;108.48
75217;HTU21D;63800;51.972;5.682;2023-02-19T01:08:33;9.34;108.43
75217;HTU21D;63800;51.972;5.682;2023-02-19T01:10:59;9.35;108.40
75217;HTU21D;63800;51.972;5.682;2023-02-19T01:13:25;9.41;107.66
75217;HTU21D;63800;51.972;5.682;2023-02-19T01:15:51;9.32;107.57
75217;HTU21D;63800;51.972;5.682;2023-02-19T01:18:16;9.30;107.85
75217;HTU21D;63800;51.972;5.682;2023-02-19T01:20:43;9.44;107.40
75217;HTU21D;63800;51.972;5.682;2023-02-19T01:23:10;9.39;107.24
75217;HTU21D;63800;51.972;5.682;2023-02-19T01:25:40;9.45;106.66
75217;HTU21D;63800;51.972;5.682;2023-02-19T01:28:07;9.42;106.86
75217;HTU21D;63800;51.972;5.682;2023-02-19T01:30:34;9.31;107.33
75217;HTU21D;63800;51.972;5.682;2023-02-19T01:33:02;9.30;107.83
75217;HTU21D;63800;51.972;5.682;2023-02-19T01:35:28;9.34;107.54
75217;HTU21D;63800;51.972;5.682;2023-02-19T01:37:53;9.30;107.56
75217;HTU21D;63800;51.972;5.682;2023-02-19T01:40:22;9.22;107.95
75217;HTU21D;63800;51.972;5.682;2023-02-19T01:42:47;9.20;107.48
75217;HTU21D;63800;51.972;5.682;2023-02-19T01:48:18;9.29;106.95
75217;HTU21D;63800;51.972;5.682;2023-02-19T01:50:51;9.24;106.74
75217;HTU21D;63800;51.972;5.682;2023-02-19T01:53:21;9.32;106.69
75217;HTU21D;63800;51.972;5.682;2023-02-19T01:55:52;9.25;106.85
75217;HTU21D;63800;51.972;5.682;2023-02-19T01:58:19;9.24;106.98
75217;HTU21D;63800;51.972;5.682;2023-02-19T02:00:45;9.15;106.92
75217;HTU21D;63800;51.972;5.682;2023-02-19T02:03:10;9.23;106.51
75217;HTU21D;63800;51.972;5.682;2023-02-19T02:05:45;9.40;105.47
75217;HTU21D;63800;51.972;5.682;2023-02-19T02:08:13;9.25;106.58
75217;HTU21D;63800;51.972;5.682;2023-02-19T02:10:58;9.30;106.34
75217;HTU21D;63800;51.972;5.682;2023-02-19T02:13:23;9.19;106.31
75217;HTU21D;63800;51.972;5.682;2023-02-19T02:18:58;9.11;106.90
75217;HTU21D;63800;51.972;5.682;2023-02-19T02:21:32;9.17;106.85
75217;HTU21D;63800;51.972;5.682;2023-02-19T02:32:11;9.19;107.20
75217;HTU21D;63800;51.972;5.682;2023-02-19T02:34:47;9.26;106.81
75217;HTU21D;63800;51.972;5.682;2023-02-19T02:37:13;9.15;107.01
75217;HTU21D;63800;51.972;5.682;2023-02-19T02:39:40;9.10;107.70
75217;HTU21D;63800;51.972;5.682;2023-02-19T02:42:06;9.17;107.09
75217;HTU21D;63800;51.972;5.682;2023-02-19T02:44:50;9.21;106.93
75217;HTU21D;63800;51.972;5.682;2023-02-19T02:47:39;9.18;107.37
75217;HTU21D;63800;51.972;5.682;2023-02-19T02:50:12;9.19;106.85
75217;HTU21D;63800;51.972;5.682;2023-02-19T02:52:41;9.09;107.41
75217;HTU21D;63800;51.972;5.682;2023-02-19T02:55:29;9.22;106.50
75217;HTU21D;63800;51.972;5.682;2023-02-19T02:57:55;9.24;106.35
75217;HTU21D;63800;51.972;5.682;2023-02-19T03:00:22;9.24;106.57
75217;HTU21D;63800;51.972;5.682;2023-02-19T03:02:48;9.02;107.51
75217;HTU21D;63800;51.972;5.682;2023-02-19T03:05:19;9.27;106.28
75217;HTU21D;63800;51.972;5.682;2023-02-19T03:08:15;9.14;106.68
75217;HTU21D;63800;51.972;5.682;2023-02-19T03:10:44;9.21;106.18
75217;HTU21D;63800;51.972;5.682;2023-02-19T03:13:15;9.19;106.37
75217;HTU21D;63800;51.972;5.682;2023-02-19T03:16:07;9.18;106.88
75217;HTU21D;63800;51.972;5.682;2023-02-19T03:18:53;9.14;106.35
75217;HTU21D;63800;51.972;5.682;2023-02-19T03:21:40;9.10;106.96
75217;HTU21D;63800;51.972;5.682;2023-02-19T03:24:08;9.17;106.91
75217;HTU21D;63800;51.972;5.682;2023-02-19T03:26:55;9.16;106.89
75217;HTU21D;63800;51.972;5.682;2023-02-19T03:29:23;9.24;106.16
75217;HTU21D;63800;51.972;5.682;2023-02-19T03:31:54;9.19;106.60
75217;HTU21D;63800;51.972;5.682;2023-02-19T03:34:35;9.24;106.85
75217;HTU21D;63800;51.972;5.682;2023-02-19T03:37:19;9.10;107.54
75217;HTU21D;63800;51.972;5.682;2023-02-19T03:39:48;9.20;106.83
75217;HTU21D;63800;51.972;5.682;2023-02-19T03:42:50;9.24;106.35
75217;HTU21D;63800;51.972;5.682;2023-02-19T03:45:33;9.18;106.39
75217;HTU21D;63800;51.972;5.682;2023-02-19T03:48:23;9.25;105.60
75217;HTU21D;63800;51.972;5.682;2023-02-19T03:50:56;9.35;104.73
75217;HTU21D;63800;51.972;5.682;2023-02-19T03:53:31;9.36;104.76
75217;HTU21D;63800;51.972;5.682;2023-02-19T03:56:33;9.15;106.31
75217;HTU21D;63800;51.972;5.682;2023-02-19T03:59:15;9.26;105.16
75217;HTU21D;63800;51.972;5.682;2023-02-19T04:01:46;9.23;105.95
75217;HTU21D;63800;51.972;5.682;2023-02-19T04:04:24;9.29;105.21
75217;HTU21D;63800;51.972;5.682;2023-02-19T04:06:54;9.25;105.56
75217;HTU21D;63800;51.972;5.682;2023-02-19T04:09:23;9.24;104.93
75217;HTU21D;63800;51.972;5.682;2023-02-19T04:11:50;9.27;105.34
75217;HTU21D;63800;51.972;5.682;2023-02-19T04:14:19;9.21;104.31
75217;HTU21D;63800;51.972;5.682;2023-02-19T04:16:52;9.24;104.40
75217;HTU21D;63800;51.972;5.682;2023-02-19T04:19:20;9.18;104.69
75217;HTU21D;63800;51.972;5.682;2023-02-19T04:21:48;9.24;105.08
75217;HTU21D;63800;51.972;5.682;2023-02-19T04:24:25;9.11;104.53
75217;HTU21D;63800;51.972;5.682;2023-02-19T04:26:52;9.21;104.70
75217;HTU21D;63800;51.972;5.682;2023-02-19T04:29:19;9.18;104.73
75217;HTU21D;63800;51.972;5.682;2023-02-19T04:31:44;9.23;103.89
75217;HTU21D;63800;51.972;5.682;2023-02-19T04:34:09;9.32;103.97
75217;HTU21D;63800;51.972;5.682;2023-02-19T04:36:35;9.24;103.76
75217;HTU21D;63800;51.972;5.682;2023-02-19T04:39:00;9.20;104.51
75217;HTU21D;63800;51.972;5.682;2023-02-19T04:41:26;9.14;104.50
75217;HTU21D;63800;51.972;5.682;2023-02-19T04:43:51;9.16;104.50
75217;HTU21D;63800;51.972;5.682;2023-02-19T04:46:17;9.19;104.05
75217;HTU21D;63800;51.972;5.682;2023-02-19T04:48:42;9.14;104.15
75217;HTU21D;63800;51.972;5.682;2023-02-19T04:51:09;9.26;103.55
75217;HTU21D;63800;51.972;5.682;2023-02-19T04:53:35;9.22;103.81
75217;HTU21D;63800;51.972;5.682;2023-02-19T04:56:09;9.25;103.54
75217;HTU21D;63800;51.972;5.682;2023-02-19T04:58:35;9.16;104.25
75217;HTU21D;63800;51.972;5.682;2023-02-19T05:01:00;9.14;103.68
75217;HTU21D;63800;51.972;5.682;2023-02-19T05:03:26;9.30;102.80
75217;HTU21D;63800;51.972;5.682;2023-02-19T05:05:51;9.12;103.61
75217;HTU21D;63800;51.972;5.682;2023-02-19T05:08:17;9.19;103.87
75217;HTU21D;63800;51.972;5.682;2023-02-19T05:10:42;9.25;103.05
75217;HTU21D;63800;51.972;5.682;2023-02-19T05:13:08;9.18;102.97
75217;HTU21D;63800;51.972;5.682;2023-02-19T05:15:33;9.23;103.28
75217;HTU21D;63800;51.972;5.682;2023-02-19T05:17:59;9.24;102.45
75217;HTU21D;63800;51.972;5.682;2023-02-19T05:20:24;9.25;102.49
75217;HTU21D;63800;51.972;5.682;2023-02-19T05:22:49;9.24;102.71
75217;HTU21D;63800;51.972;5.682;2023-02-19T05:25:15;9.27;102.57
75217;HTU21D;63800;51.972;5.682;2023-02-19T05:27:40;9.27;102.36
75217;HTU21D;63800;51.972;5.682;2023-02-19T05:30:06;9.23;102.55
75217;HTU21D;63800;51.972;5.682;2023-02-19T05:32:34;9.22;102.44
75217;HTU21D;63800;51.972;5.682;2023-02-19T05:35:00;9.23;102.31
75217;HTU21D;63800;51.972;5.682;2023-02-19T05:37:26;9.18;101.73
75217;HTU21D;63800;51.972;5.682;2023-02-19T05:39:51;9.21;102.39
75217;HTU21D;63800;51.972;5.682;2023-02-19T05:42:19;9.24;102.06
75217;HTU21D;63800;51.972;5.682;2023-02-19T05:44:44;9.32;101.45
75217;HTU21D;63800;51.972;5.682;2023-02-19T05:47:10;9.18;101.43
75217;HTU21D;63800;51.972;5.682;2023-02-19T05:49:35;9.18;101.57
75217;HTU21D;63800;51.972;5.682;2023-02-19T05:52:01;9.17;101.22
75217;HTU21D;63800;51.972;5.682;2023-02-19T05:54:30;9.21;100.70
75217;HTU21D;63800;51.972;5.682;2023-02-19T05:56:55;9.22;100.09
75217;HTU21D;63800;51.972;5.682;2023-02-19T05:59:23;9.19;100.35
75217;HTU21D;63800;51.972;5.682;2023-02-19T06:01:50;9.23;99.48
75217;HTU21D;63800;51.972;5.682;2023-02-19T06:04:16;9.14;99.58
75217;HTU21D;63800;51.972;5.682;2023-02-19T06:06:43;9.24;99.22
75217;HTU21D;63800;51.972;5.682;2023-02-19T06:09:09;9.21;99.96
75217;HTU21D;63800;51.972;5.682;2023-02-19T06:11:35;9.29;99.15
75217;HTU21D;63800;51.972;5.682;2023-02-19T06:14:01;9.17;99.79
75217;HTU21D;63800;51.972;5.682;2023-02-19T06:16:26;9.23;99.42
75217;HTU21D;63800;51.972;5.682;2023-02-19T06:18:52;9.19;99.10
75217;HTU21D;63800;51.972;5.682;2023-02-19T06:21:18;9.15;100.38
75217;HTU21D;63800;51.972;5.682;2023-02-19T06:23:44;9.06;100.30
75217;HTU21D;63800;51.972;5.682;2023-02-19T06:26:21;9.12;100.23
75217;HTU21D;63800;51.972;5.682;2023-02-19T06:28:48;9.09;100.03
75217;HTU21D;63800;51.972;5.682;2023-02-19T06:31:16;9.07;100.51
75217;HTU21D;63800;51.972;5.682;2023-02-19T06:33:42;9.10;99.53
75217;HTU21D;63800;51.972;5.682;2023-02-19T06:36:11;9.17;99.29
75217;HTU21D;63800;51.972;5.682;2023-02-19T06:38:37;9.19;99.29
75217;HTU21D;63800;51.972;5.682;2023-02-19T06:41:05;9.17;100.01
75217;HTU21D;63800;51.972;5.682;2023-02-19T06:43:31;9.12;99.38
75217;HTU21D;63800;51.972;5.682;2023-02-19T06:45:58;9.14;99.11
75217;HTU21D;63800;51.972;5.682;2023-02-19T06:48:25;9.09;99.13
75217;HTU21D;63800;51.972;5.682;2023-02-19T06:50:51;9.01;99.22
75217;HTU21D;63800;51.972;5.682;2023-02-19T06:53:16;9.07;99.14
75217;HTU21D;63800;51.972;5.682;2023-02-19T06:55:42;9.07;100.25
75217;HTU21D;63800;51.972;5.682;2023-02-19T06:58:07;8.94;102.86
75217;HTU21D;63800;51.972;5.682;2023-02-19T07:00:33;9.00;102.60
75217;HTU21D;63800;51.972;5.682;2023-02-19T07:02:59;8.88;103.43
75217;HTU21D;63800;51.972;5.682;2023-02-19T07:05:24;8.91;103.69
75217;HTU21D;63800;51.972;5.682;2023-02-19T07:07:50;8.94;103.63
75217;HTU21D;63800;51.972;5.682;2023-02-19T07:10:16;9.03;103.02
75217;HTU21D;63800;51.972;5.682;2023-02-19T07:12:41;9.04;102.71
75217;HTU21D;63800;51.972;5.682;2023-02-19T07:15:07;8.89;102.71
75217;HTU21D;63800;51.972;5.682;2023-02-19T07:17:33;8.85;103.55
75217;HTU21D;63800;51.972;5.682;2023-02-19T07:19:59;8.88;103.87
75217;HTU21D;63800;51.972;5.682;2023-02-19T07:22:24;8.80;105.04
75217;HTU21D;63800;51.972;5.682;2023-02-19T07:24:50;8.85;104.51
75217;HTU21D;63800;51.972;5.682;2023-02-19T07:27:15;8.83;104.73
75217;HTU21D;63800;51.972;5.682;2023-02-19T07:29:41;8.85;105.15
75217;HTU21D;63800;51.972;5.682;2023-02-19T07:32:06;8.87;104.41
75217;HTU21D;63800;51.972;5.682;2023-02-19T07:34:32;8.98;103.94
75217;HTU21D;63800;51.972;5.682;2023-02-19T07:36:57;8.85;104.37
75217;HTU21D;63800;51.972;5.682;2023-02-19T07:39:22;8.94;103.76
75217;HTU21D;63800;51.972;5.682;2023-02-19T07:41:48;8.90;103.66
75217;HTU21D;63800;51.972;5.682;2023-02-19T07:44:13;8.88;102.87
75217;HTU21D;63800;51.972;5.682;2023-02-19T07:46:41;8.96;102.81
75217;HTU21D;63800;51.972;5.682;2023-02-19T07:49:07;9.01;103.36
75217;HTU21D;63800;51.972;5.682;2023-02-19T07:51:33;8.88;104.16
75217;HTU21D;63800;51.972;5.682;2023-02-19T07:53:58;8.94;103.50
75217;HTU21D;63800;51.972;5.682;2023-02-19T07:56:24;8.95;102.97
75217;HTU21D;63800;51.972;5.682;2023-02-19T07:58:49;8.95;102.52
75217;HTU21D;63800;51.972;5.682;2023-02-19T08:01:20;8.95;103.14
75217;HTU21D;63800;51.972;5.682;2023-02-19T08:04:06;8.92;102.54
75217;HTU21D;63800;51.972;5.682;2023-02-19T08:06:32;8.93;102.22
75217;HTU21D;63800;51.972;5.682;2023-02-19T08:08:57;9.04;101.36
75217;HTU21D;63800;51.972;5.682;2023-02-19T08:11:23;8.96;101.53
75217;HTU21D;63800;51.972;5.682;2023-02-19T08:14:07;9.02;101.75
75217;HTU21D;63800;51.972;5.682;2023-02-19T08:16:32;8.93;101.58
75217;HTU21D;63800;51.972;5.682;2023-02-19T08:18:58;9.02;101.08
75217;HTU21D;63800;51.972;5.682;2023-02-19T08:21:23;9.12;100.93
75217;HTU21D;63800;51.972;5.682;2023-02-19T08:23:49;9.14;100.76
75217;HTU21D;63800;51.972;5.682;2023-02-19T08:26:15;9.16;100.70
75217;HTU21D;63800;51.972;5.682;2023-02-19T08:28:41;9.12;100.30
75217;HTU21D;63800;51.972;5.682;2023-02-19T08:31:08;9.14;100.40
75217;HTU21D;63800;51.972;5.682;2023-02-19T08:33:35;9.22;99.87
75217;HTU21D;63800;51.972;5.682;2023-02-19T08:36:03;9.08;100.73
75217;HTU21D;63800;51.972;5.682;2023-02-19T08:38:29;9.07;100.22
75217;HTU21D;63800;51.972;5.682;2023-02-19T08:40:55;9.05;100.61
75217;HTU21D;63800;51.972;5.682;2023-02-19T08:43:21;9.12;100.37
75217;HTU21D;63800;51.972;5.682;2023-02-19T08:45:46;9.08;100.74
75217;HTU21D;63800;51.972;5.682;2023-02-19T08:48:13;9.06;100.25
75217;HTU21D;63800;51.972;5.682;2023-02-19T08:50:39;9.15;100.89
75217;HTU21D;63800;51.972;5.682;2023-02-19T08:53:05;9.20;100.35
75217;HTU21D;63800;51.972;5.682;2023-02-19T08:55:32;9.32;99.11
75217;HTU21D;63800;51.972;5.682;2023-02-19T08:57:58;9.19;100.15
75217;HTU21D;63800;51.972;5.682;2023-02-19T09:00:24;9.19;101.25
75217;HTU21D;63800;51.972;5.682;2023-02-19T09:02:49;9.14;100.99
75217;HTU21D;63800;51.972;5.682;2023-02-19T09:05:16;9.11;100.93
75217;HTU21D;63800;51.972;5.682;2023-02-19T09:07:41;9.15;101.19
75217;HTU21D;63800;51.972;5.682;2023-02-19T09:10:09;9.23;100.56
75217;HTU21D;63800;51.972;5.682;2023-02-19T09:12:34;9.14;100.73
75217;HTU21D;63800;51.972;5.682;2023-02-19T09:15:00;9.25;100.00
75217;HTU21D;63800;51.972;5.682;2023-02-19T09:17:26;9.17;100.57
75217;HTU21D;63800;51.972;5.682;2023-02-19T09:19:51;9.24;100.90
75217;HTU21D;63800;51.972;5.682;2023-02-19T09:22:17;9.23;100.48
75217;HTU21D;63800;51.972;5.682;2023-02-19T09:24:43;9.19;101.47
75217;HTU21D;63800;51.972;5.682;2023-02-19T09:27:12;9.20;102.31
75217;HTU21D;63800;51.972;5.682;2023-02-19T09:29:38;9.30;101.93
75217;HTU21D;63800;51.972;5.682;2023-02-19T09:32:04;9.33;100.49
75217;HTU21D;63800;51.972;5.682;2023-02-19T09:34:29;9.42;99.77
75217;HTU21D;63800;51.972;5.682;2023-02-19T09:36:55;9.47;99.90
75217;HTU21D;63800;51.972;5.682;2023-02-19T09:39:20;9.45;98.78
75217;HTU21D;63800;51.972;5.682;2023-02-19T09:41:53;9.48;98.06
75217;HTU21D;63800;51.972;5.682;2023-02-19T09:44:40;9.50;98.49
75217;HTU21D;63800;51.972;5.682;2023-02-19T09:47:24;9.55;98.40
75217;HTU21D;63800;51.972;5.682;2023-02-19T09:49:53;9.37;98.29
75217;HTU21D;63800;51.972;5.682;2023-02-19T09:54:49;9.32;99.32
75217;HTU21D;63800;51.972;5.682;2023-02-19T09:57:17;9.25;100.54
75217;HTU21D;63800;51.972;5.682;2023-02-19T09:59:58;9.45;99.87
75217;HTU21D;63800;51.972;5.682;2023-02-19T10:02:26;9.49;99.42
75217;HTU21D;63800;51.972;5.682;2023-02-19T10:04:54;9.42;98.55
75217;HTU21D;63800;51.972;5.682;2023-02-19T10:07:25;9.61;98.33
75217;HTU21D;63800;51.972;5.682;2023-02-19T10:10:04;9.64;97.99
75217;HTU21D;63800;51.972;5.682;2023-02-19T10:12:50;9.53;97.97
75217;HTU21D;63800;51.972;5.682;2023-02-19T10:15:29;9.75;96.89
75217;HTU21D;63800;51.972;5.682;2023-02-19T10:17:56;9.79;97.17
75217;HTU21D;63800;51.972;5.682;2023-02-19T10:20:23;9.71;96.87
75217;HTU21D;63800;51.972;5.682;2023-02-19T10:23:04;9.54;97.09
75217;HTU21D;63800;51.972;5.682;2023-02-19T10:25:32;9.37;98.06
75217;HTU21D;63800;51.972;5.682;2023-02-19T10:27:58;9.38;98.40
75217;HTU21D;63800;51.972;5.682;2023-02-19T10:30:28;9.55;97.12
75217;HTU21D;63800;51.972;5.682;2023-02-19T10:33:18;9.79;95.92
75217;HTU21D;63800;51.972;5.682;2023-02-19T10:36:04;9.83;95.96
75217;HTU21D;63800;51.972;5.682;2023-02-19T10:38:45;10.03;96.03
75217;HTU21D;63800;51.972;5.682;2023-02-19T10:41:12;10.12;93.99
75217;HTU21D;63800;51.972;5.682;2023-02-19T10:43:42;10.34;92.46
75217;HTU21D;63800;51.972;5.682;2023-02-19T10:46:23;10.28;90.25
75217;HTU21D;63800;51.972;5.682;2023-02-19T10:48:57;10.19;90.92
75217;HTU21D;63800;51.972;5.682;2023-02-19T10:51:36;10.27;88.47
75217;HTU21D;63800;51.972;5.682;2023-02-19T10:54:26;10.26;87.22
75217;HTU21D;63800;51.972;5.682;2023-02-19T10:56:53;10.14;89.08
75217;HTU21D;63800;51.972;5.682;2023-02-19T10:59:24;10.09;89.10
75217;HTU21D;63800;51.972;5.682;2023-02-19T11:02:01;9.91;88.24
75217;HTU21D;63800;51.972;5.682;2023-02-19T11:04:29;10.00;90.18
75217;HTU21D;63800;51.972;5.682;2023-02-19T11:07:06;9.91;89.59
75217;HTU21D;63800;51.972;5.682;2023-02-19T11:09:43;9.91;89.74
75217;HTU21D;63800;51.972;5.682;2023-02-19T11:12:11;9.93;88.82
75217;HTU21D;63800;51.972;5.682;2023-02-19T11:14:41;9.81;89.71
75217;HTU21D;63800;51.972;5.682;2023-02-19T11:17:22;9.84;90.07
75217;HTU21D;63800;51.972;5.682;2023-02-19T11:19:51;9.86;92.50
75217;HTU21D;63800;51.972;5.682;2023-02-19T11:22:37;9.82;94.48
75217;HTU21D;63800;51.972;5.682;2023-02-19T11:27:35;9.56;96.02
75217;HTU21D;63800;51.972;5.682;2023-02-19T11:30:40;9.49;98.26
75217;HTU21D;63800;51.972;5.682;2023-02-19T11:35:41;9.40;100.32
75217;HTU21D;63800;51.972;5.682;2023-02-19T11:38:12;9.32;100.42
75217;HTU21D;63800;51.972;5.682;2023-02-19T11:49:58;9.52;98.89
75217;HTU21D;63800;51.972;5.682;2023-02-19T11:52:35;9.36;99.32
75217;HTU21D;63800;51.972;5.682;2023-02-19T12:03:48;9.18;101.82
75217;HTU21D;63800;51.972;5.682;2023-02-19T12:06:30;9.31;101.44
75217;HTU21D;63800;51.972;5.682;2023-02-19T12:17:23;9.04;101.57
75217;HTU21D;63800;51.972;5.682;2023-02-19T12:20:24;9.18;100.04
75217;HTU21D;63800;51.972;5.682;2023-02-19T12:23:20;9.12;101.38
75217;HTU21D;63800;51.972;5.682;2023-02-19T12:40:12;9.19;101.06
75217;HTU21D;63800;51.972;5.682;2023-02-19T12:42:51;9.21;100.94
75217;HTU21D;63800;51.972;5.682;2023-02-19T12:45:21;9.05;100.86
75217;HTU21D;63800;51.972;5.682;2023-02-19T12:50:38;9.12;100.87
75217;HTU21D;63800;51.972;5.682;2023-02-19T12:53:13;9.29;99.39
75217;HTU21D;63800;51.972;5.682;2023-02-19T12:55:43;9.24;100.48
75217;HTU21D;63800;51.972;5.682;2023-02-19T12:58:26;9.36;99.96
75217;HTU21D;63800;51.972;5.682;2023-02-19T13:00:55;9.26;102.45
75217;HTU21D;63800;51.972;5.682;2023-02-19T13:03:49;9.34;100.09
75217;HTU21D;63800;51.972;5.682;2023-02-19T13:06:35;9.29;100.55
75217;HTU21D;63800;51.972;5.682;2023-02-19T13:11:40;9.03;102.04
75217;HTU21D;63800;51.972;5.682;2023-02-19T13:14:20;9.10;102.70
75217;HTU21D;63800;51.972;5.682;2023-02-19T13:16:51;9.02;103.18
75217;HTU21D;63800;51.972;5.682;2023-02-19T13:19:19;9.00;102.03
75217;HTU21D;63800;51.972;5.682;2023-02-19T13:21:46;8.94;103.24
75217;HTU21D;63800;51.972;5.682;2023-02-19T13:24:36;9.07;101.15
75217;HTU21D;63800;51.972;5.682;2023-02-19T13:30:39;9.33;99.77
75217;HTU21D;63800;51.972;5.682;2023-02-19T13:36:11;8.93;103.48
75217;HTU21D;63800;51.972;5.682;2023-02-19T13:38:39;8.98;104.17
75217;HTU21D;63800;51.972;5.682;2023-02-19T13:41:05;9.01;103.03
75217;HTU21D;63800;51.972;5.682;2023-02-19T13:43:40;8.85;103.30
75217;HTU21D;63800;51.972;5.682;2023-02-19T13:46:09;9.02;103.15
75217;HTU21D;63800;51.972;5.682;2023-02-19T13:48:38;8.92;104.07
75217;HTU21D;63800;51.972;5.682;2023-02-19T14:04:39;8.71;102.22
75217;HTU21D;63800;51.972;5.682;2023-02-19T14:14:37;8.67;101.74
75217;HTU21D;63800;51.972;5.682;2023-02-19T14:28:18;8.49;100.29
75217;HTU21D;63800;51.972;5.682;2023-02-19T14:30:51;8.37;101.38
75217;HTU21D;63800;51.972;5.682;2023-02-19T14:33:39;8.29;101.96
75217;HTU21D;63800;51.972;5.682;2023-02-19T14:36:18;8.43;100.91
75217;HTU21D;63800;51.972;5.682;2023-02-19T14:38:55;8.31;99.96
75217;HTU21D;63800;51.972;5.682;2023-02-19T14:41:22;8.23;100.83
75217;HTU21D;63800;51.972;5.682;2023-02-19T14:43:51;8.50;98.84
75217;HTU21D;63800;51.972;5.682;2023-02-19T14:48:50;8.26;98.38
75217;HTU21D;63800;51.972;5.682;2023-02-19T14:51:38;8.23;97.74
75217;HTU21D;63800;51.972;5.682;2023-02-19T14:54:45;8.14;100.30
75217;HTU21D;63800;51.972;5.682;2023-02-19T14:57:35;8.28;99.97
75217;HTU21D;63800;51.972;5.682;2023-02-19T15:00:26;8.06;98.09
75217;HTU21D;63800;51.972;5.682;2023-02-19T15:02:51;8.45;96.91
75217;HTU21D;63800;51.972;5.682;2023-02-19T15:05:26;8.24;97.23
75217;HTU21D;63800;51.972;5.682;2023-02-19T15:07:54;8.19;97.87
75217;HTU21D;63800;51.972;5.682;2023-02-19T15:10:19;8.23;97.06
75217;HTU21D;63800;51.972;5.682;2023-02-19T15:12:49;8.17;97.52
75217;HTU21D;63800;51.972;5.682;2023-02-19T15:15:18;8.33;96.38
75217;HTU21D;63800;51.972;5.682;2023-02-19T15:17:45;8.16;95.16
75217;HTU21D;63800;51.972;5.682;2023-02-19T15:20:16;8.17;96.26
75217;HTU21D;63800;51.972;5.682;2023-02-19T15:22:43;8.06;96.92
75217;HTU21D;63800;51.972;5.682;2023-02-19T15:25:15;8.18;97.11
75217;HTU21D;63800;51.972;5.682;2023-02-19T15:27:42;8.09;95.13
75217;HTU21D;63800;51.972;5.682;2023-02-19T15:30:24;8.31;95.90
75217;HTU21D;63800;51.972;5.682;2023-02-19T15:32:54;8.05;97.94
75217;HTU21D;63800;51.972;5.682;2023-02-19T15:35:21;8.11;96.23
75217;HTU21D;63800;51.972;5.682;2023-02-19T15:37:48;8.26;96.22
75217;HTU21D;63800;51.972;5.682;2023-02-19T15:40:14;8.05;96.80
75217;HTU21D;63800;51.972;5.682;2023-02-19T15:42:43;7.92;97.32
75217;HTU21D;63800;51.972;5.682;2023-02-19T15:47:58;7.85;98.66
75217;HTU21D;63800;51.972;5.682;2023-02-19T15:50:36;8.00;97.25
75217;HTU21D;63800;51.972;5.682;2023-02-19T15:53:22;8.13;97.32
75217;HTU21D;63800;51.972;5.682;2023-02-19T15:58:30;7.86;98.02
75217;HTU21D;63800;51.972;5.682;2023-02-19T16:01:10;7.72;98.54
75217;HTU21D;63800;51.972;5.682;2023-02-19T16:03:38;7.90;97.63
75217;HTU21D;63800;51.972;5.682;2023-02-19T16:06:07;7.76;97.55
75217;HTU21D;63800;51.972;5.682;2023-02-19T16:08:40;7.96;96.92
75217;HTU21D;63800;51.972;5.682;2023-02-19T16:11:26;8.01;96.64
75217;HTU21D;63800;51.972;5.682;2023-02-19T16:14:23;8.20;96.42
75217;HTU21D;63800;51.972;5.682;2023-02-19T16:16:54;7.92;96.65
75217;HTU21D;63800;51.972;5.682;2023-02-19T16:19:29;7.78;98.23
75217;HTU21D;63800;51.972;5.682;2023-02-19T16:21:57;7.98;96.75
75217;HTU21D;63800;51.972;5.682;2023-02-19T16:24:39;7.94;96.62
75217;HTU21D;63800;51.972;5.682;2023-02-19T16:27:06;7.92;96.12
75217;HTU21D;63800;51.972;5.682;2023-02-19T16:29:33;7.93;96.46
75217;HTU21D;63800;51.972;5.682;2023-02-19T16:32:00;7.78;96.55
75217;HTU21D;63800;51.972;5.682;2023-02-19T16:34:47;7.70;96.70
75217;HTU21D;63800;51.972;5.682;2023-02-19T16:45:14;7.72;96.50
75217;HTU21D;63800;51.972;5.682;2023-02-19T16:47:39;7.81;96.26
75217;HTU21D;63800;51.972;5.682;2023-02-19T16:50:23;7.70;96.44
75217;HTU21D;63800;51.972;5.682;2023-02-19T16:52:59;7.67;96.82
75217;HTU21D;63800;51.972;5.682;2023-02-19T16:55:26;7.77;96.43
75217;HTU21D;63800;51.972;5.682;2023-02-19T16:57:52;7.85;95.84
75217;HTU21D;63800;51.972;5.682;2023-02-19T17:00:27;7.55;97.18
75217;HTU21D;63800;51.972;5.682;2023-02-19T17:02:55;7.44;98.21
75217;HTU21D;63800;51.972;5.682;2023-02-19T17:05:22;7.35;97.95
75217;HTU21D;63800;51.972;5.682;2023-02-19T17:07:48;7.65;96.84
75217;HTU21D;63800;51.972;5.682;2023-02-19T17:10:19;7.57;97.20
75217;HTU21D;63800;51.972;5.682;2023-02-19T17:12:45;7.57;96.78
75217;HTU21D;63800;51.972;5.682;2023-02-19T17:15:11;7.48;97.05
75217;HTU21D;63800;51.972;5.682;2023-02-19T17:17:37;7.71;97.26
75217;HTU21D;63800;51.972;5.682;2023-02-19T17:22:42;7.41;98.72
75217;HTU21D;63800;51.972;5.682;2023-02-19T17:25:08;7.44;99.09
75217;HTU21D;63800;51.972;5.682;2023-02-19T17:27:34;7.54;98.16
75217;HTU21D;63800;51.972;5.682;2023-02-19T17:29:59;7.45;99.24
75217;HTU21D;63800;51.972;5.682;2023-02-19T17:32:25;7.61;98.26
75217;HTU21D;63800;51.972;5.682;2023-02-19T17:34:50;7.43;98.51
75217;HTU21D;63800;51.972;5.682;2023-02-19T17:37:16;7.55;97.78
75217;HTU21D;63800;51.972;5.682;2023-02-19T17:39:42;7.53;98.85
75217;HTU21D;63800;51.972;5.682;2023-02-19T17:42:07;7.59;97.84
75217;HTU21D;63800;51.972;5.682;2023-02-19T17:44:33;7.53;98.10
75217;HTU21D;63800;51.972;5.682;2023-02-19T17:46:59;7.45;97.85